Time;durP1;ratioP1;P1;durP2;ratioP2;P2;SDS_P1;SDS_P2;PMS_P1;PMS_P2;Temp;Humidity;BMP_temperature;BMP_pressure;BME280_temperature;BME280_humidity;BME280_pressure;Samples;Min_cycle;Max_cycle;Signal;HPM_P1;HPM_P2
2023/06/18 07:01:35;;;;;;;0.45;0.45;;;23.80;99.90;28.30;101185.00;;;;6004841;23;1427455;-63
2023/06/18 07:04:46;;;;;;;0.10;0.10;;;23.90;99.90;27.70;101155.00;;;;6039554;23;20193;-63
2023/06/18 07:07:37;;;;;;;0.10;0.10;;;23.90;99.90;28.10;101189.00;;;;6039724;23;20170;-62
2023/06/18 07:10:04;;;;;;;0.10;0.10;;;23.90;99.90;28.30;101194.00;;;;6042227;23;20166;-63
2023/06/18 07:12:30;;;;;;;0.10;0.10;;;24.00;99.90;27.50;101154.00;;;;6039917;23;20494;-63
2023/06/18 07:15:02;;;;;;;0.10;0.10;;;23.90;99.90;26.40;101151.00;;;;6065041;23;20181;-63
2023/06/18 07:17:30;;;;;;;0.10;0.10;;;23.40;99.90;26.70;101163.00;;;;6064687;23;20480;-63
2023/06/18 07:19:58;;;;;;;0.38;0.38;;;23.20;99.90;26.70;101164.00;;;;6063701;23;20163;-63
2023/06/18 07:22:24;;;;;;;0.30;0.30;;;23.10;99.90;26.40;101169.00;;;;6064885;23;20173;-63
2023/06/18 07:24:53;;;;;;;0.10;0.10;;;23.10;99.90;26.40;101170.00;;;;6065091;23;20159;-62
2023/06/18 07:27:22;;;;;;;0.95;0.95;;;23.00;99.90;27.00;101179.00;;;;6064934;23;20153;-63
2023/06/18 07:29:50;;;;;;;0.10;0.10;;;23.20;99.90;26.90;101180.00;;;;6039673;23;20166;-63
2023/06/18 07:32:21;;;;;;;0.10;0.10;;;23.30;99.90;26.10;101159.00;;;;6064946;23;20574;-62
2023/06/18 07:34:50;;;;;;;0.20;0.20;;;22.90;99.90;27.00;101182.00;;;;6065147;23;20188;-62
2023/06/18 07:37:21;;;;;;;0.10;0.10;;;23.20;99.90;26.30;101171.00;;;;6039603;23;20582;-63
2023/06/18 07:39:50;;;;;;;2.30;2.17;;;23.00;99.90;26.90;101168.00;;;;6039436;23;20236;-63
2023/06/18 07:42:21;;;;;;;0.10;0.10;;;23.00;99.90;27.30;101142.00;;;;6065209;23;20263;-62
2023/06/18 07:44:52;;;;;;;0.40;0.40;;;23.20;99.90;26.60;101167.00;;;;6040878;23;20143;-62
2023/06/18 07:47:18;;;;;;;0.35;0.35;;;23.20;99.90;26.60;101164.00;;;;6064790;23;20188;-62
2023/06/18 07:49:49;;;;;;;0.10;0.10;;;23.00;99.90;26.90;101164.00;;;;6065253;23;20146;-63
2023/06/18 07:52:17;;;;;;;0.10;0.10;;;23.10;99.90;27.50;101173.00;;;;6039715;23;20173;-63
2023/06/18 07:54:48;;;;;;;0.10;0.10;;;23.30;99.90;27.80;101174.00;;;;6064964;23;20151;-63
2023/06/18 07:57:14;;;;;;;0.13;0.13;;;23.50;99.90;27.60;101186.00;;;;6039819;23;20173;-63
2023/06/18 07:59:43;;;;;;;0.65;0.65;;;23.60;99.90;28.00;101183.00;;;;6064460;23;20196;-63
2023/06/18 08:02:09;;;;;;;0.63;0.63;;;23.80;99.90;27.50;101181.00;;;;6040196;23;20178;-63
2023/06/18 08:04:38;;;;;;;1.35;1.33;;;23.70;99.90;27.00;101179.00;;;;6064362;23;20145;-63
2023/06/18 08:07:08;;;;;;;0.30;0.30;;;23.50;99.90;26.70;101164.00;;;;6039306;23;20173;-63
2023/06/18 08:09:37;;;;;;;0.43;0.43;;;23.30;99.90;26.80;101139.00;;;;6039350;23;20192;-63
2023/06/18 08:12:04;;;;;;;0.10;0.10;;;23.10;99.90;26.90;101144.00;;;;6040342;23;20146;-63
2023/06/18 08:14:33;;;;;;;0.10;0.10;;;23.00;99.90;27.40;101139.00;;;;6039421;23;20487;-63
2023/06/18 08:17:02;;;;;;;0.28;0.28;;;23.20;99.90;27.00;101145.00;;;;6063381;23;20575;-63
2023/06/18 08:19:31;;;;;;;0.50;0.50;;;23.20;99.90;26.90;101139.00;;;;6064646;23;20178;-62
2023/06/18 08:22:00;;;;;;;0.10;0.10;;;23.20;99.90;26.80;101136.00;;;;6039973;23;20169;-62
2023/06/18 08:24:29;;;;;;;0.50;0.50;;;23.00;99.90;25.50;101115.00;;;;6064773;23;20142;-62
2023/06/18 08:26:55;;;;;;;0.10;0.10;;;22.60;99.90;25.60;101087.00;;;;6064569;23;20146;-62
2023/06/18 08:29:23;;;;;;;0.10;0.10;;;22.30;99.90;26.60;101111.00;;;;6039455;23;20174;-63
2023/06/18 08:31:49;;;;;;;0.10;0.10;;;22.80;99.90;26.10;101091.00;;;;6064644;23;20571;-62
2023/06/18 08:34:15;;;;;;;0.10;0.10;;;22.60;99.90;25.50;101070.00;;;;6064864;23;20150;-62
2023/06/18 08:36:47;;;;;;;0.35;0.35;;;22.40;99.90;26.10;101088.00;;;;6038932;23;20589;-63
2023/06/18 08:39:14;;;;;;;0.30;0.30;;;22.40;99.90;26.10;101063.00;;;;6064293;23;20471;-63
2023/06/18 08:41:42;;;;;;;1.42;0.93;;;22.30;99.90;25.30;101087.00;;;;6039106;23;20519;-62
2023/06/18 08:44:08;;;;;;;0.52;0.52;;;22.10;99.90;25.10;101078.00;;;;6039723;23;20499;-62
2023/06/18 08:46:35;;;;;;;0.88;0.88;;;21.80;99.90;25.60;101090.00;;;;6039254;23;20161;-62
2023/06/18 08:49:02;;;;;;;0.20;0.20;;;21.80;99.90;25.90;101090.00;;;;6039178;23;20590;-62
2023/06/18 08:51:32;;;;;;;0.10;0.10;;;22.00;99.90;25.40;101087.00;;;;6064308;23;20169;-62
2023/06/18 08:54:20;;;;;;;0.10;0.10;;;22.10;99.90;26.00;101101.00;;;;6015794;23;20158;-62
2023/06/18 08:56:50;;;;;;;0.30;0.30;;;22.20;99.90;25.90;101085.00;;;;6063935;23;20553;-63
2023/06/18 08:59:19;;;;;;;0.20;0.20;;;22.30;99.90;25.90;101084.00;;;;6063937;23;20174;-63
2023/06/18 09:01:50;;;;;;;0.55;0.40;;;22.40;99.90;25.50;101085.00;;;;6038639;23;20220;-63
2023/06/18 09:04:21;;;;;;;0.43;0.43;;;22.20;99.90;25.80;101075.00;;;;6015245;23;20169;-63
2023/06/18 09:06:52;;;;;;;0.32;0.32;;;22.20;99.90;26.10;101079.00;;;;6039301;23;20142;-63
2023/06/18 09:09:18;;;;;;;0.15;0.15;;;22.30;99.90;25.80;101066.00;;;;6039916;23;20158;-63
2023/06/18 09:11:50;;;;;;;0.10;0.10;;;22.30;99.90;25.80;101039.00;;;;6038785;23;20146;-63
2023/06/18 09:14:18;;;;;;;0.40;0.40;;;22.30;99.90;26.60;101084.00;;;;6039122;23;20564;-63
2023/06/18 09:16:47;;;;;;;1.27;1.17;;;22.60;99.90;25.80;101057.00;;;;6037917;23;20154;-62
2023/06/18 09:19:16;;;;;;;0.20;0.20;;;22.50;99.90;25.20;101063.00;;;;6064448;23;20145;-62
2023/06/18 09:21:43;;;;;;;3.35;3.15;;;22.20;99.90;26.30;101081.00;;;;6015776;23;20158;-63
2023/06/18 09:24:27;;;;;;;0.57;0.57;;;22.40;99.90;26.30;101072.00;;;;6039539;23;20146;-63
2023/06/18 09:27:02;;;;;;;1.90;1.80;;;22.50;99.90;25.40;101063.00;;;;6064022;23;20200;-62
2023/06/18 09:29:33;;;;;;;0.60;0.60;;;22.60;99.90;25.40;101058.00;;;;6039119;23;20189;-62
2023/06/18 09:32:11;;;;;;;1.05;1.05;;;22.20;99.90;25.60;101064.00;;;;6039163;23;20154;-63
2023/06/18 09:34:38;;;;;;;0.20;0.20;;;22.30;99.90;25.60;101057.00;;;;6038713;23;20150;-63
2023/06/18 09:37:06;;;;;;;0.45;0.45;;;22.40;99.90;25.20;101065.00;;;;6063828;23;20176;-63
2023/06/18 09:39:38;;;;;;;0.73;0.73;;;22.40;99.90;25.90;101066.00;;;;6064350;23;20511;-63
2023/06/18 09:42:11;;;;;;;1.15;1.10;;;22.50;99.90;25.20;101065.00;;;;6064121;23;20238;-62
2023/06/18 09:44:44;;;;;;;0.35;0.35;;;22.60;99.90;26.30;101038.00;;;;6064353;23;20153;-62
2023/06/18 09:47:11;;;;;;;1.27;1.17;;;22.60;99.90;26.10;101063.00;;;;6038717;23;20464;-63
2023/06/18 09:49:38;;;;;;;0.65;0.65;;;22.80;99.90;26.30;101065.00;;;;6063976;23;20161;-63
2023/06/18 09:52:07;;;;;;;0.90;0.90;;;22.80;99.90;26.30;101066.00;;;;6038799;23;20172;-63
2023/06/18 09:54:43;;;;;;;0.40;0.40;;;23.00;99.90;25.60;101059.00;;;;6064383;23;20146;-63
2023/06/18 09:57:13;;;;;;;0.73;0.73;;;22.60;99.90;25.70;101041.00;;;;6039022;23;20157;-63
2023/06/18 09:59:41;;;;;;;0.40;0.40;;;22.50;99.90;26.20;101072.00;;;;6081506;23;20178;-62
2023/06/18 10:02:13;;;;;;;1.48;0.93;;;22.60;99.90;26.00;101073.00;;;;6185365;23;20184;-63
2023/06/18 10:04:44;;;;;;;2.28;1.10;;;22.70;99.90;26.10;101070.00;;;;6160684;23;20155;-62
2023/06/18 10:07:19;;;;;;;2.60;2.20;;;22.80;99.90;26.20;101045.00;;;;6184328;23;20162;-62
2023/06/18 10:09:50;;;;;;;2.75;2.55;;;22.90;99.90;26.00;101076.00;;;;6184022;23;20182;-63
2023/06/18 10:12:30;;;;;;;0.20;0.20;;;22.90;99.90;26.80;101068.00;;;;6159411;23;20155;-63
2023/06/18 10:15:05;;;;;;;0.63;0.63;;;23.20;99.90;26.10;101057.00;;;;6184550;23;20221;-62
2023/06/18 10:17:57;;;;;;;0.30;0.30;;;23.20;99.90;26.70;101072.00;;;;6183722;23;20162;-63
2023/06/18 10:20:30;;;;;;;5.97;2.20;;;23.30;99.90;27.30;101072.00;;;;6126387;23;20166;-63
2023/06/18 10:33:42;;;;;;;1.15;1.08;;;22.40;99.90;25.50;101025.00;;;;5070275;28;20597;-61
2023/06/18 10:36:32;;;;;;;1.10;0.65;;;22.60;99.90;27.60;101058.00;;;;5053237;28;20195;-62
2023/06/18 10:39:18;;;;;;;0.20;0.20;;;23.60;99.90;27.70;101051.00;;;;5048885;28;20551;-62
2023/06/18 10:41:45;;;;;;;1.38;1.27;;;24.30;99.90;27.20;101034.00;;;;5048715;28;20192;-62
2023/06/18 10:44:19;;;;;;;1.60;1.52;;;24.30;99.90;27.30;101013.00;;;;5050330;28;20225;-64
2023/06/18 10:47:23;;;;;;;1.50;1.40;;;24.20;99.90;27.20;101016.00;;;;5048873;28;20271;-61
2023/06/18 10:50:07;;;;;;;0.50;0.50;;;24.10;99.90;27.90;101028.00;;;;5046836;28;20182;-62
2023/06/18 10:52:50;;;;;;;2.40;1.67;;;24.30;99.90;27.60;101033.00;;;;5056445;28;20777;-62
2023/06/18 10:55:24;;;;;;;0.98;0.85;;;24.40;99.90;27.40;101032.00;;;;5046029;28;20259;-62
2023/06/18 10:58:31;;;;;;;0.98;0.88;;;24.50;99.90;27.40;101021.00;;;;5047251;28;20182;-62
2023/06/18 11:01:11;;;;;;;1.90;1.77;;;24.30;99.90;27.90;101028.00;;;;5048434;28;20182;-62
2023/06/18 11:03:40;;;;;;;2.60;2.40;;;24.50;99.90;27.70;101035.00;;;;5048308;28;20277;-62
2023/06/18 11:06:29;;;;;;;0.82;0.82;;;24.70;99.90;27.70;101030.00;;;;5049563;28;20174;-62
2023/06/18 11:09:12;;;;;;;0.73;0.73;;;24.70;99.90;28.50;101036.00;;;;5045164;28;20244;-62
2023/06/18 11:11:50;;;;;;;0.20;0.20;;;25.00;99.90;28.10;101023.00;;;;5048036;28;20236;-62
2023/06/18 11:14:20;;;;;;;1.23;1.13;;;25.10;99.90;27.10;101011.00;;;;5039792;28;20644;-62
2023/06/18 11:17:10;;;;;;;0.73;0.73;;;24.80;99.90;27.20;100993.00;;;;5048099;28;20238;-62
2023/06/18 11:19:38;;;;;;;1.98;0.85;;;24.30;99.90;28.60;101001.00;;;;5049238;28;20565;-62
2023/06/18 11:22:07;;;;;;;3.72;2.85;;;24.90;99.90;27.90;101025.00;;;;5048241;28;20186;-63
2023/06/18 11:24:41;;;;;;;0.95;0.95;;;25.20;99.90;28.40;101029.00;;;;5047972;28;20401;-63
2023/06/18 11:27:13;;;;;;;1.58;1.48;;;25.20;99.90;28.40;101019.00;;;;5048440;28;20540;-63
2023/06/18 11:29:48;;;;;;;1.70;1.45;;;25.20;99.90;29.30;101025.00;;;;5045073;28;20269;-62
2023/06/18 11:32:17;;;;;;;3.50;2.58;;;25.60;99.90;28.30;101041.00;;;;5045634;28;20221;-63
2023/06/18 11:35:02;;;;;;;3.08;2.83;;;25.50;99.90;28.80;101050.00;;;;5048230;28;20179;-63
2023/06/18 11:37:51;;;;;;;0.68;0.68;;;25.50;99.90;28.80;101042.00;;;;5047644;28;20186;-63
2023/06/18 11:40:17;;;;;;;2.15;1.83;;;25.40;99.90;28.80;101046.00;;;;5047606;28;20178;-63
2023/06/18 11:42:54;;;;;;;2.13;1.30;;;25.60;99.90;29.50;101054.00;;;;5045004;28;20884;-63
2023/06/18 11:45:45;;;;;;;0.70;0.70;;;25.70;99.90;28.70;101059.00;;;;5035654;28;20186;-63
2023/06/18 11:48:15;;;;;;;1.65;1.55;;;25.40;99.90;28.60;101061.00;;;;5027142;28;20183;-63
2023/06/18 11:51:05;;;;;;;1.90;1.80;;;25.40;99.90;28.60;101049.00;;;;5035706;28;20187;-63
2023/06/18 11:53:42;;;;;;;5.35;4.95;;;25.20;99.90;27.00;101043.00;;;;5034551;28;20194;-62
2023/06/18 11:56:24;;;;;;;0.30;0.30;;;24.80;99.90;28.30;101033.00;;;;5034352;28;20214;-63
2023/06/18 11:59:00;;;;;;;6.55;1.67;;;24.80;99.90;27.40;101031.00;;;;5033903;28;20183;-63
2023/06/18 12:01:31;;;;;;;2.60;2.38;;;24.70;99.90;26.60;101021.00;;;;5017629;28;20587;-63
2023/06/18 12:04:07;;;;;;;0.65;0.47;;;24.50;99.90;27.20;101005.00;;;;5027384;28;20178;-63
2023/06/18 12:06:37;;;;;;;2.75;2.55;;;24.30;99.90;28.10;101014.00;;;;5035606;28;20189;-63
2023/06/18 12:09:09;;;;;;;0.45;0.45;;;24.60;99.90;28.40;101039.00;;;;5018085;28;20195;-63
2023/06/18 12:11:42;;;;;;;1.48;1.38;;;24.90;99.90;28.30;101043.00;;;;5035405;28;20553;-63
2023/06/18 12:14:24;;;;;;;0.93;0.43;;;24.90;99.90;28.30;101038.00;;;;5034735;28;20719;-63
2023/06/18 12:16:59;;;;;;;0.80;0.75;;;25.00;99.90;28.60;101040.00;;;;5023525;28;20258;-63
2023/06/18 12:19:57;;;;;;;0.40;0.40;;;25.00;99.90;29.30;101044.00;;;;5033865;28;20192;-63
2023/06/18 12:22:29;;;;;;;0.82;0.82;;;25.20;99.90;28.90;101052.00;;;;5034264;28;20195;-62
2023/06/18 12:24:57;;;;;;;1.58;1.48;;;25.20;99.90;28.80;101047.00;;;;5034015;28;20549;-63
2023/06/18 12:27:25;;;;;;;0.10;0.10;;;25.00;99.90;28.70;101050.00;;;;5034868;28;20676;-63
2023/06/18 12:30:00;;;;;;;0.77;0.77;;;24.90;99.90;27.40;101016.00;;;;5033870;28;20182;-63
2023/06/18 12:32:41;;;;;;;1.48;1.38;;;24.80;99.90;26.10;100983.00;;;;5018801;28;20616;-62
2023/06/18 12:35:21;;;;;;;0.25;0.25;;;24.00;99.90;27.20;100978.00;;;;5034822;28;20183;-62
2023/06/18 12:37:53;;;;;;;0.75;0.75;;;24.00;99.90;27.30;100977.00;;;;5022204;28;20218;-63
2023/06/18 12:40:25;;;;;;;1.48;1.48;;;24.00;99.90;27.20;100980.00;;;;5032654;28;20221;-62
2023/06/18 12:42:52;;;;;;;1.17;0.98;;;23.90;99.90;27.50;100983.00;;;;5034817;28;20282;-62
2023/06/18 12:45:33;;;;;;;0.40;0.40;;;24.00;99.90;27.60;100990.00;;;;5033245;28;20197;-62
2023/06/18 12:48:24;;;;;;;0.20;0.20;;;24.10;99.90;28.00;100978.00;;;;5021586;28;20190;-63
2023/06/18 12:50:56;;;;;;;4.03;2.22;;;24.10;99.90;26.90;100983.00;;;;5062642;28;20204;-63
2023/06/18 12:53:34;;;;;;;0.40;0.40;;;23.90;99.90;27.90;100958.00;;;;5033484;28;20261;-63
2023/06/18 12:56:29;;;;;;;0.73;0.73;;;24.00;99.90;27.80;100990.00;;;;5031774;28;20190;-63
2023/06/18 12:59:03;;;;;;;0.40;0.40;;;24.20;99.90;27.40;100982.00;;;;5029752;28;20194;-63
2023/06/18 13:01:32;;;;;;;1.40;1.30;;;24.10;99.90;28.10;100973.00;;;;5039120;28;20250;-62
2023/06/18 13:04:03;;;;;;;0.63;0.63;;;24.40;99.90;27.90;100975.00;;;;5034891;28;20276;-63
2023/06/18 13:06:35;;;;;;;0.55;0.55;;;24.50;99.90;27.80;100972.00;;;;5026195;28;20185;-63
2023/06/18 13:09:04;;;;;;;0.20;0.20;;;24.40;99.90;28.00;100964.00;;;;5032753;28;20636;-63
2023/06/18 13:11:33;;;;;;;1.00;0.95;;;24.50;99.90;28.30;100937.00;;;;5031266;28;20203;-63
2023/06/18 13:14:19;;;;;;;0.90;0.63;;;24.90;99.90;28.50;100964.00;;;;5032741;28;20203;-63
2023/06/18 13:16:53;;;;;;;0.98;0.95;;;25.00;99.90;28.10;100946.00;;;;5035863;28;20564;-62
2023/06/18 13:19:22;;;;;;;3.17;2.35;;;24.80;99.90;27.30;100937.00;;;;5024277;28;20633;-62
2023/06/18 13:22:08;;;;;;;1.52;1.42;;;24.90;99.90;26.70;100907.00;;;;5033804;28;20191;-62
2023/06/18 13:24:44;;;;;;;1.42;1.08;;;24.60;99.90;28.20;100925.00;;;;5033249;28;20183;-63
2023/06/18 13:27:22;;;;;;;1.40;0.95;;;24.90;99.90;28.40;100951.00;;;;5032549;28;20683;-62
2023/06/18 13:29:56;;;;;;;1.38;1.27;;;25.30;99.90;28.20;100942.00;;;;5027319;28;20222;-63
2023/06/18 13:32:29;;;;;;;1.00;1.00;;;25.40;99.90;28.80;100929.00;;;;5031763;28;20644;-62
2023/06/18 13:35:16;;;;;;;3.95;2.40;;;25.60;99.90;29.10;100950.00;;;;5029572;28;20210;-62
2023/06/18 13:37:45;;;;;;;1.58;1.05;;;25.60;99.90;28.90;100948.00;;;;5032499;28;20190;-62
2023/06/18 13:40:21;;;;;;;2.28;1.90;;;25.80;99.90;27.60;100915.00;;;;5045314;28;20214;-62
2023/06/18 13:42:58;;;;;;;2.47;2.28;;;25.50;99.90;28.60;100930.00;;;;5030550;28;20645;-62
2023/06/18 13:45:40;;;;;;;1.98;1.88;;;25.40;99.90;28.20;100938.00;;;;5033776;28;20541;-62
2023/06/18 13:48:16;;;;;;;1.58;1.13;;;25.40;99.90;28.80;100949.00;;;;5031079;28;20186;-64
2023/06/18 13:50:48;;;;;;;2.88;2.63;;;25.50;99.90;28.10;100936.00;;;;5032522;28;20213;-62
2023/06/18 13:53:22;;;;;;;3.75;2.00;;;25.30;99.90;28.20;100937.00;;;;5032583;28;20211;-62
2023/06/18 13:56:02;;;;;;;1.05;0.95;;;25.40;99.90;29.00;100934.00;;;;5033058;28;20191;-63
2023/06/18 13:58:34;;;;;;;0.50;0.50;;;25.40;99.90;29.80;100930.00;;;;5032371;28;20186;-63
2023/06/18 14:01:16;;;;;;;2.90;0.93;;;26.00;99.90;29.40;100948.00;;;;5031993;28;20178;-63
2023/06/18 14:06:54;;;;;;;1.20;1.13;;;26.00;99.90;29.30;100943.00;;;;5031910;28;20198;-62
2023/06/18 14:09:20;;;;;;;1.48;1.38;;;26.00;99.90;27.60;100973.00;;;;5004032;28;20191;-63
2023/06/18 14:11:58;;;;;;;1.38;1.27;;;25.70;99.90;28.40;100954.00;;;;5033211;28;20202;-63
2023/06/18 14:14:27;;;;;;;1.85;1.58;;;25.70;99.90;27.90;100934.00;;;;5031925;28;20691;-62
2023/06/18 14:17:16;;;;;;;0.85;0.85;;;25.40;99.90;29.30;100937.00;;;;5026003;28;20175;-63
2023/06/18 14:19:47;;;;;;;0.57;0.57;;;25.80;99.90;29.20;100930.00;;;;5032888;28;20187;-63
2023/06/18 14:22:25;;;;;;;1.92;1.83;;;25.90;99.90;30.10;100934.00;;;;5032922;28;20190;-62
2023/06/18 14:24:59;;;;;;;4.13;3.28;;;26.30;99.90;28.90;100961.00;;;;5031661;28;21034;-63
2023/06/18 14:27:31;;;;;;;0.55;0.55;;;26.40;99.90;29.50;100933.00;;;;5033221;28;20240;-63
2023/06/18 14:30:06;;;;;;;0.17;0.17;;;26.20;99.90;30.40;100946.00;;;;5025730;28;20313;-63
2023/06/18 14:32:37;;;;;;;2.03;1.83;;;26.50;99.90;30.00;100941.00;;;;5023532;28;20575;-63
2023/06/18 14:35:12;;;;;;;0.20;0.20;;;26.50;99.90;30.50;100939.00;;;;5031639;28;20187;-63
2023/06/18 14:37:49;;;;;;;0.20;0.20;;;26.70;99.90;30.50;100944.00;;;;5032895;28;20541;-63
2023/06/18 14:40:29;;;;;;;3.13;2.83;;;26.90;99.90;28.40;100946.00;;;;5032753;28;20190;-62
2023/06/18 14:43:17;;;;;;;1.13;1.05;;;26.40;99.90;29.90;100920.00;;;;5024344;28;20191;-63
2023/06/18 14:45:48;;;;;;;0.52;0.47;;;26.40;99.90;30.80;100917.00;;;;5026951;28;20662;-63
2023/06/18 14:48:20;;;;;;;0.75;0.75;;;26.80;99.90;29.80;100924.00;;;;5025557;28;20211;-63
2023/06/18 14:50:46;;;;;;;2.03;0.77;;;26.70;99.90;30.90;100923.00;;;;5024681;28;20280;-63
2023/06/18 14:53:17;;;;;;;1.15;0.85;;;27.00;99.90;30.10;100937.00;;;;5030849;28;20226;-63
2023/06/18 14:55:53;;;;;;;0.20;0.20;;;27.00;99.90;30.80;100904.00;;;;5032707;28;20220;-63
2023/06/18 14:58:28;;;;;;;2.35;2.10;;;27.10;99.90;31.40;100927.00;;;;5031453;28;20193;-63
2023/06/18 15:00:59;;;;;;;0.80;0.80;;;27.50;99.90;31.20;100928.00;;;;5033031;28;20186;-63
2023/06/18 15:03:28;;;;;;;0.98;0.98;;;27.70;99.90;31.50;100923.00;;;;5032828;28;20266;-63
2023/06/18 15:05:59;;;;;;;0.50;0.50;;;27.80;99.90;31.50;100918.00;;;;5032307;28;20280;-63
2023/06/18 15:08:28;;;;;;;1.50;1.40;;;27.80;99.90;31.40;100915.00;;;;5028131;28;20207;-63
2023/06/18 15:11:14;;;;;;;0.90;0.90;;;27.80;99.90;31.70;100926.00;;;;5032856;28;20190;-63
2023/06/18 15:13:42;;;;;;;2.55;1.13;;;27.80;99.90;31.90;100913.00;;;;5031143;28;20197;-63
2023/06/18 15:16:15;;;;;;;1.48;1.08;;;28.00;99.90;31.40;100911.00;;;;5031994;28;20752;-63
2023/06/18 15:18:43;;;;;;;0.43;0.43;;;28.00;99.90;31.30;100914.00;;;;5048829;28;20290;-63
2023/06/18 15:21:18;;;;;;;1.85;1.75;;;27.80;99.90;31.50;100885.00;;;;5030753;28;20202;-63
2023/06/18 15:23:56;;;;;;;1.20;0.60;;;27.80;99.90;31.00;100918.00;;;;5036137;28;20190;-63
2023/06/18 15:26:27;;;;;;;1.65;1.10;;;27.60;99.90;30.30;100929.00;;;;5036413;28;20179;-63
2023/06/18 15:28:56;;;;;;;0.52;0.52;;;27.30;99.90;31.00;100924.00;;;;5034476;28;20224;-63
2023/06/18 15:31:24;;;;;;;0.77;0.77;;;27.40;99.90;31.00;100922.00;;;;5035907;28;20233;-63
2023/06/18 15:33:55;;;;;;;0.40;0.40;;;27.50;99.90;30.80;100910.00;;;;5036304;28;20266;-63
2023/06/18 15:36:21;;;;;;;0.65;0.65;;;27.50;99.90;30.80;100909.00;;;;5021904;28;20221;-63
2023/06/18 15:39:02;;;;;;;1.27;1.02;;;27.60;99.90;30.70;100906.00;;;;5035777;28;20215;-63
2023/06/18 15:41:38;;;;;;;4.07;1.75;;;27.50;99.90;30.80;100897.00;;;;5030693;28;20236;-63
2023/06/18 15:44:11;;;;;;;2.50;2.22;;;27.40;99.90;30.20;100914.00;;;;5034589;28;20335;-63
2023/06/18 15:46:43;;;;;;;1.20;0.95;;;27.50;99.90;31.30;100892.00;;;;5034696;28;20223;-63
2023/06/18 15:49:13;;;;;;;0.93;0.73;;;27.50;99.90;31.00;100898.00;;;;5042663;28;20577;-63
2023/06/18 15:51:41;;;;;;;0.50;0.50;;;27.60;99.90;31.00;100899.00;;;;5057769;28;20657;-63
2023/06/18 15:54:12;;;;;;;1.88;1.77;;;27.60;99.90;30.40;100906.00;;;;5034243;28;20222;-63
2023/06/18 15:56:43;;;;;;;1.20;0.68;;;27.40;99.90;30.70;100900.00;;;;5034049;28;20237;-63
2023/06/18 15:59:10;;;;;;;0.82;0.68;;;27.40;99.90;30.40;100906.00;;;;5035482;28;20213;-63
2023/06/18 16:01:38;;;;;;;1.55;1.45;;;27.30;99.90;30.60;100869.00;;;;5034388;28;20191;-63
2023/06/18 16:04:10;;;;;;;0.40;0.40;;;27.30;99.90;30.30;100904.00;;;;5035632;28;20592;-63
2023/06/18 16:06:41;;;;;;;1.65;1.48;;;27.10;99.90;30.40;100891.00;;;;5033955;28;20183;-63
2023/06/18 16:09:17;;;;;;;2.85;2.25;;;27.10;99.90;30.30;100901.00;;;;5034324;28;20277;-63
2023/06/18 16:11:50;;;;;;;0.70;0.63;;;26.90;99.90;30.20;100895.00;;;;5035158;28;20205;-63
2023/06/18 16:14:20;;;;;;;0.85;0.85;;;26.80;99.90;30.20;100887.00;;;;5034023;28;20261;-63
2023/06/18 16:16:59;;;;;;;1.48;1.38;;;26.90;99.90;30.60;100889.00;;;;5033852;28;20202;-63
2023/06/18 16:19:43;;;;;;;1.20;1.02;;;26.90;99.90;30.00;100894.00;;;;5033536;28;20265;-63
2023/06/18 16:22:12;;;;;;;21.23;1.10;;;26.70;99.90;30.50;100871.00;;;;5026427;28;20200;-63
2023/06/18 16:24:46;;;;;;;0.20;0.20;;;26.80;99.90;30.60;100879.00;;;;5034857;28;20187;-63
2023/06/18 16:27:17;;;;;;;0.47;0.47;;;26.70;99.90;30.70;100882.00;;;;5033764;28;20182;-63
2023/06/18 16:29:48;;;;;;;2.05;1.85;;;26.70;99.90;29.90;100892.00;;;;5034686;28;20183;-63
2023/06/18 16:32:17;;;;;;;2.55;2.00;;;26.60;99.90;29.70;100896.00;;;;5033309;28;20233;-63
2023/06/18 16:34:51;;;;;;;0.10;0.10;;;26.40;99.90;30.30;100879.00;;;;5017048;28;20221;-63
2023/06/18 16:37:28;;;;;;;0.75;0.75;;;26.40;99.90;30.00;100861.00;;;;5034660;28;20221;-63
2023/06/18 16:39:57;;;;;;;1.02;0.98;;;26.50;99.90;30.00;100876.00;;;;5035025;28;20183;-63
2023/06/18 16:42:43;;;;;;;1.58;1.38;;;26.40;99.90;29.60;100881.00;;;;5034366;28;20189;-63
2023/06/18 16:45:12;;;;;;;2.67;0.70;;;26.20;99.90;29.40;100882.00;;;;5026873;28;20696;-63
2023/06/18 16:47:39;;;;;;;2.75;1.58;;;26.10;99.90;29.40;100860.00;;;;5033357;28;20190;-63
2023/06/18 16:50:08;;;;;;;1.88;1.63;;;26.10;99.90;29.80;100846.00;;;;5033012;28;20179;-63
2023/06/18 16:52:37;;;;;;;0.30;0.30;;;26.10;99.90;29.80;100856.00;;;;5031838;28;20202;-63
2023/06/18 16:55:23;;;;;;;0.95;0.60;;;26.20;99.90;29.80;100861.00;;;;5042118;28;20209;-63
2023/06/18 16:57:53;;;;;;;0.95;0.95;;;26.10;99.90;29.80;100844.00;;;;5034526;28;20179;-62
2023/06/18 17:00:24;;;;;;;0.20;0.20;;;26.20;99.90;30.50;100826.00;;;;5034513;28;20193;-63
2023/06/18 17:02:54;;;;;;;0.10;0.10;;;26.40;99.90;30.40;100810.00;;;;5034080;28;20186;-63
2023/06/18 17:05:20;;;;;;;0.82;0.82;;;26.40;99.90;29.60;100826.00;;;;5034398;28;20179;-63
2023/06/18 17:07:52;;;;;;;0.10;0.10;;;26.40;99.90;29.50;100818.00;;;;5036355;28;20198;-63
2023/06/18 17:10:18;;;;;;;0.77;0.77;;;26.20;99.90;29.50;100810.00;;;;5028782;28;20272;-63
2023/06/18 17:12:51;;;;;;;0.50;0.50;;;26.20;99.90;29.80;100796.00;;;;5033957;28;20733;-63
2023/06/18 17:15:20;;;;;;;0.32;0.32;;;26.30;99.90;29.20;100808.00;;;;5032911;28;20183;-63
2023/06/18 17:17:51;;;;;;;1.00;0.90;;;26.00;99.90;30.00;100789.00;;;;5032597;28;20237;-63
2023/06/18 17:20:22;;;;;;;0.20;0.20;;;26.20;99.90;30.60;100786.00;;;;5033069;28;20269;-63
2023/06/18 17:23:00;;;;;;;0.55;0.52;;;26.30;99.90;29.90;100783.00;;;;5034136;28;20237;-63
2023/06/18 17:25:49;;;;;;;0.30;0.30;;;26.40;99.90;29.80;100786.00;;;;5033850;28;20637;-63
2023/06/18 17:28:22;;;;;;;1.55;1.35;;;26.20;99.90;29.30;100797.00;;;;5033886;28;20233;-63
2023/06/18 17:30:51;;;;;;;0.43;0.43;;;26.20;99.90;29.80;100777.00;;;;5034425;28;20188;-63
2023/06/18 17:33:31;;;;;;;1.05;0.98;;;26.10;99.90;28.70;100792.00;;;;5025853;28;20560;-63
2023/06/18 17:36:06;;;;;;;7.63;0.98;;;26.00;99.90;29.50;100776.00;;;;5033760;28;20236;-63
2023/06/18 17:38:36;;;;;;;1.10;0.70;;;25.80;99.90;29.70;100788.00;;;;5030587;28;20191;-63
2023/06/18 17:41:05;;;;;;;0.80;0.80;;;25.90;99.90;28.60;100805.00;;;;5033184;28;20186;-63
2023/06/18 17:43:39;;;;;;;0.65;0.65;;;25.80;99.90;29.80;100779.00;;;;5032420;28;20201;-63
2023/06/18 17:46:27;;;;;;;0.20;0.20;;;25.80;99.90;30.70;100762.00;;;;5033296;28;20221;-63
2023/06/18 17:49:05;;;;;;;0.47;0.47;;;26.30;99.90;31.10;100754.00;;;;5033228;28;20191;-64
2023/06/18 17:51:36;;;;;;;1.52;1.42;;;26.60;99.90;30.60;100763.00;;;;5033476;28;20229;-63
2023/06/18 17:54:14;;;;;;;0.10;0.10;;;26.60;99.90;29.80;100777.00;;;;5033345;28;20198;-63
2023/06/18 17:57:06;;;;;;;0.82;0.82;;;26.40;99.90;30.20;100758.00;;;;5027569;28;20195;-63
2023/06/18 17:59:32;;;;;;;2.30;1.55;;;26.30;99.90;30.00;100779.00;;;;5012640;28;20634;-63
2023/06/18 18:02:04;;;;;;;0.30;0.30;;;26.10;99.90;29.70;100783.00;;;;5029358;28;20205;-63
2023/06/18 18:04:34;;;;;;;1.63;1.52;;;26.10;99.90;29.50;100786.00;;;;5033344;28;20274;-63
2023/06/18 18:07:06;;;;;;;0.60;0.60;;;26.00;99.90;29.70;100782.00;;;;5026379;28;20638;-63
2023/06/18 18:09:41;;;;;;;0.40;0.40;;;26.10;99.90;30.00;100766.00;;;;5033025;28;20190;-63
2023/06/18 18:12:28;;;;;;;0.10;0.10;;;26.20;99.90;30.00;100784.00;;;;5032069;28;20202;-63
2023/06/18 18:14:59;;;;;;;0.57;0.57;;;26.10;99.90;30.80;100776.00;;;;5033206;28;20183;-64
2023/06/18 18:17:37;;;;;;;0.73;0.73;;;26.30;99.90;30.10;100789.00;;;;5032738;28;20215;-64
2023/06/18 18:20:10;;;;;;;0.70;0.70;;;26.60;99.90;29.20;100815.00;;;;5033184;28;20187;-63
2023/06/18 18:22:39;;;;;;;0.85;0.77;;;26.00;99.90;29.50;100816.00;;;;5033056;28;20175;-63
2023/06/18 18:25:11;;;;;;;0.20;0.20;;;25.80;99.90;28.90;100823.00;;;;5033781;28;20210;-64
2023/06/18 18:27:45;;;;;;;2.92;2.72;;;25.80;99.90;28.90;100811.00;;;;5032867;28;20648;-63
2023/06/18 18:30:21;;;;;;;4.45;1.17;;;25.60;99.90;28.90;100813.00;;;;5026545;28;20178;-63